sensor_id;sensor_type;location;lat;lon;timestamp;pressure;altitude;pressure_sealevel;temperature;humidity
4590;BME280;2307;48.448;9.216;2023-06-22T00:01:07;95497.09;;;21.61;100.00
4590;BME280;2307;48.448;9.216;2023-06-22T00:03:34;95479.00;;;21.53;100.00
4590;BME280;2307;48.448;9.216;2023-06-22T00:06:00;95482.84;;;21.25;100.00
4590;BME280;2307;48.448;9.216;2023-06-22T00:08:27;95473.06;;;21.29;100.00
4590;BME280;2307;48.448;9.216;2023-06-22T00:10:53;95481.22;;;21.24;100.00
4590;BME280;2307;48.448;9.216;2023-06-22T00:13:21;95487.16;;;21.48;100.00
4590;BME280;2307;48.448;9.216;2023-06-22T00:15:47;95492.53;;;21.61;100.00
4590;BME280;2307;48.448;9.216;2023-06-22T00:18:13;95496.03;;;21.62;100.00
4590;BME280;2307;48.448;9.216;2023-06-22T00:20:41;95491.19;;;21.37;100.00
4590;BME280;2307;48.448;9.216;2023-06-22T00:23:07;95494.16;;;21.22;100.00
4590;BME280;2307;48.448;9.216;2023-06-22T00:25:34;95499.59;;;21.03;100.00
4590;BME280;2307;48.448;9.216;2023-06-22T00:28:00;95498.72;;;21.07;100.00
4590;BME280;2307;48.448;9.216;2023-06-22T00:30:28;95494.41;;;21.06;100.00
4590;BME280;2307;48.448;9.216;2023-06-22T00:32:54;95495.16;;;21.12;100.00
4590;BME280;2307;48.448;9.216;2023-06-22T00:35:21;95487.56;;;21.00;100.00
4590;BME280;2307;48.448;9.216;2023-06-22T00:37:47;95479.31;;;20.83;100.00
4590;BME280;2307;48.448;9.216;2023-06-22T00:40:13;95473.63;;;20.85;100.00
4590;BME280;2307;48.448;9.216;2023-06-22T00:42:40;95479.19;;;20.75;100.00
4590;BME280;2307;48.448;9.216;2023-06-22T00:45:07;95469.53;;;20.87;100.00
4590;BME280;2307;48.448;9.216;2023-06-22T00:47:35;95466.91;;;21.14;100.00
4590;BME280;2307;48.448;9.216;2023-06-22T00:50:02;95463.03;;;21.21;100.00
4590;BME280;2307;48.448;9.216;2023-06-22T00:52:29;95458.41;;;21.07;100.00
4590;BME280;2307;48.448;9.216;2023-06-22T00:54:57;95467.44;;;20.84;100.00
4590;BME280;2307;48.448;9.216;2023-06-22T00:57:26;95468.97;;;20.77;100.00
4590;BME280;2307;48.448;9.216;2023-06-22T00:59:53;95462.41;;;20.83;100.00
4590;BME280;2307;48.448;9.216;2023-06-22T01:02:20;95475.53;;;20.98;100.00
4590;BME280;2307;48.448;9.216;2023-06-22T01:04:47;95476.53;;;21.02;100.00
4590;BME280;2307;48.448;9.216;2023-06-22T01:07:16;95479.91;;;21.07;100.00
4590;BME280;2307;48.448;9.216;2023-06-22T01:09:46;95497.50;;;21.00;100.00
4590;BME280;2307;48.448;9.216;2023-06-22T01:12:15;95487.38;;;20.83;100.00
4590;BME280;2307;48.448;9.216;2023-06-22T01:14:45;95489.50;;;20.54;100.00
4590;BME280;2307;48.448;9.216;2023-06-22T01:17:13;95485.41;;;20.56;100.00
4590;BME280;2307;48.448;9.216;2023-06-22T01:19:43;95493.59;;;20.79;100.00
4590;BME280;2307;48.448;9.216;2023-06-22T01:22:13;95504.75;;;20.86;100.00
4590;BME280;2307;48.448;9.216;2023-06-22T01:24:41;95501.94;;;20.63;100.00
4590;BME280;2307;48.448;9.216;2023-06-22T01:29:57;95501.66;;;19.77;100.00
4590;BME280;2307;48.448;9.216;2023-06-22T01:32:25;95496.53;;;19.80;100.00
4590;BME280;2307;48.448;9.216;2023-06-22T01:34:52;95500.13;;;19.89;100.00
4590;BME280;2307;48.448;9.216;2023-06-22T01:37:18;95503.25;;;19.96;100.00
4590;BME280;2307;48.448;9.216;2023-06-22T01:39:45;95504.72;;;20.26;100.00
4590;BME280;2307;48.448;9.216;2023-06-22T01:42:11;95514.69;;;20.21;100.00
4590;BME280;2307;48.448;9.216;2023-06-22T01:44:38;95504.88;;;19.79;100.00
4590;BME280;2307;48.448;9.216;2023-06-22T01:47:06;95501.88;;;19.80;100.00
4590;BME280;2307;48.448;9.216;2023-06-22T01:49:33;95504.56;;;19.99;100.00
4590;BME280;2307;48.448;9.216;2023-06-22T01:51:59;95503.09;;;20.06;100.00
4590;BME280;2307;48.448;9.216;2023-06-22T01:54:25;95503.81;;;20.31;100.00
4590;BME280;2307;48.448;9.216;2023-06-22T01:56:52;95501.63;;;20.33;100.00
4590;BME280;2307;48.448;9.216;2023-06-22T01:59:20;95496.47;;;20.17;100.00
4590;BME280;2307;48.448;9.216;2023-06-22T02:01:52;95489.56;;;20.17;100.00
4590;BME280;2307;48.448;9.216;2023-06-22T02:04:24;95477.94;;;20.21;100.00
4590;BME280;2307;48.448;9.216;2023-06-22T02:06:54;95482.56;;;20.34;100.00
4590;BME280;2307;48.448;9.216;2023-06-22T02:09:21;95480.69;;;20.35;100.00
4590;BME280;2307;48.448;9.216;2023-06-22T02:11:52;95476.63;;;20.37;100.00
4590;BME280;2307;48.448;9.216;2023-06-22T02:14:20;95472.22;;;20.28;100.00
4590;BME280;2307;48.448;9.216;2023-06-22T02:16:47;95475.19;;;20.07;100.00
4590;BME280;2307;48.448;9.216;2023-06-22T02:19:13;95477.13;;;20.21;100.00
4590;BME280;2307;48.448;9.216;2023-06-22T02:21:44;95487.50;;;20.08;100.00
4590;BME280;2307;48.448;9.216;2023-06-22T02:24:11;95498.56;;;20.07;100.00
4590;BME280;2307;48.448;9.216;2023-06-22T02:26:37;95503.25;;;20.15;100.00
4590;BME280;2307;48.448;9.216;2023-06-22T02:29:05;95496.06;;;20.10;100.00
4590;BME280;2307;48.448;9.216;2023-06-22T02:31:31;95489.75;;;20.01;100.00
4590;BME280;2307;48.448;9.216;2023-06-22T02:33:57;95484.50;;;19.78;100.00
4590;BME280;2307;48.448;9.216;2023-06-22T02:36:24;95489.16;;;19.72;100.00
4590;BME280;2307;48.448;9.216;2023-06-22T02:38:53;95484.38;;;19.69;100.00
4590;BME280;2307;48.448;9.216;2023-06-22T02:41:21;95494.41;;;19.58;100.00
4590;BME280;2307;48.448;9.216;2023-06-22T02:43:47;95493.13;;;19.56;100.00
4590;BME280;2307;48.448;9.216;2023-06-22T02:46:14;95491.53;;;19.74;100.00
4590;BME280;2307;48.448;9.216;2023-06-22T02:48:40;95491.28;;;20.07;100.00
4590;BME280;2307;48.448;9.216;2023-06-22T02:51:07;95488.53;;;20.12;100.00
4590;BME280;2307;48.448;9.216;2023-06-22T02:53:33;95483.97;;;20.13;100.00
4590;BME280;2307;48.448;9.216;2023-06-22T02:56:02;95476.78;;;20.08;100.00
4590;BME280;2307;48.448;9.216;2023-06-22T02:58:30;95470.41;;;20.04;100.00
4590;BME280;2307;48.448;9.216;2023-06-22T03:00:58;95464.56;;;19.84;100.00
4590;BME280;2307;48.448;9.216;2023-06-22T03:03:29;95462.75;;;19.79;100.00
4590;BME280;2307;48.448;9.216;2023-06-22T03:05:56;95466.31;;;19.93;100.00
4590;BME280;2307;48.448;9.216;2023-06-22T03:08:22;95464.22;;;19.90;100.00
4590;BME280;2307;48.448;9.216;2023-06-22T03:10:48;95463.25;;;20.00;100.00
4590;BME280;2307;48.448;9.216;2023-06-22T03:13:16;95460.00;;;20.03;100.00
4590;BME280;2307;48.448;9.216;2023-06-22T03:15:42;95453.34;;;20.00;100.00
4590;BME280;2307;48.448;9.216;2023-06-22T03:18:09;95457.38;;;19.98;100.00
4590;BME280;2307;48.448;9.216;2023-06-22T03:20:35;95444.78;;;19.98;100.00
4590;BME280;2307;48.448;9.216;2023-06-22T03:23:01;95441.00;;;19.99;100.00
4590;BME280;2307;48.448;9.216;2023-06-22T03:25:28;95438.91;;;19.96;100.00
4590;BME280;2307;48.448;9.216;2023-06-22T03:27:54;95433.34;;;19.93;100.00
4590;BME280;2307;48.448;9.216;2023-06-22T03:30:22;95430.97;;;19.91;100.00
4590;BME280;2307;48.448;9.216;2023-06-22T03:32:48;95429.81;;;19.79;100.00
4590;BME280;2307;48.448;9.216;2023-06-22T03:35:15;95430.31;;;19.81;100.00
4590;BME280;2307;48.448;9.216;2023-06-22T03:37:41;95435.66;;;19.99;100.00
4590;BME280;2307;48.448;9.216;2023-06-22T03:40:08;95435.06;;;20.02;100.00
4590;BME280;2307;48.448;9.216;2023-06-22T03:42:34;95443.25;;;19.92;100.00
4590;BME280;2307;48.448;9.216;2023-06-22T03:45:01;95454.50;;;19.94;100.00
4590;BME280;2307;48.448;9.216;2023-06-22T03:47:29;95445.34;;;19.95;100.00
4590;BME280;2307;48.448;9.216;2023-06-22T03:49:58;95448.94;;;19.91;100.00
4590;BME280;2307;48.448;9.216;2023-06-22T03:52:24;95438.13;;;19.77;100.00
4590;BME280;2307;48.448;9.216;2023-06-22T03:54:50;95431.72;;;19.59;100.00
4590;BME280;2307;48.448;9.216;2023-06-22T03:57:17;95430.25;;;19.67;100.00
4590;BME280;2307;48.448;9.216;2023-06-22T03:59:43;95423.22;;;19.71;100.00
4590;BME280;2307;48.448;9.216;2023-06-22T04:02:10;95423.81;;;19.68;100.00
4590;BME280;2307;48.448;9.216;2023-06-22T04:04:37;95433.72;;;19.68;100.00
4590;BME280;2307;48.448;9.216;2023-06-22T04:07:04;95436.28;;;19.59;100.00
4590;BME280;2307;48.448;9.216;2023-06-22T04:09:31;95438.19;;;19.91;100.00
4590;BME280;2307;48.448;9.216;2023-06-22T04:11:57;95431.75;;;19.73;100.00
4590;BME280;2307;48.448;9.216;2023-06-22T04:14:24;95431.81;;;19.87;100.00
4590;BME280;2307;48.448;9.216;2023-06-22T04:16:51;95429.25;;;19.95;100.00
4590;BME280;2307;48.448;9.216;2023-06-22T04:19:17;95414.19;;;19.99;100.00
4590;BME280;2307;48.448;9.216;2023-06-22T04:21:45;95413.41;;;19.99;100.00
4590;BME280;2307;48.448;9.216;2023-06-22T04:24:13;95412.81;;;20.02;100.00
4590;BME280;2307;48.448;9.216;2023-06-22T04:26:39;95406.06;;;20.04;100.00
4590;BME280;2307;48.448;9.216;2023-06-22T04:29:06;95405.06;;;20.00;100.00
4590;BME280;2307;48.448;9.216;2023-06-22T04:31:33;95404.16;;;20.05;100.00
4590;BME280;2307;48.448;9.216;2023-06-22T04:34:02;95403.19;;;20.01;100.00
4590;BME280;2307;48.448;9.216;2023-06-22T04:36:31;95407.44;;;20.02;100.00
4590;BME280;2307;48.448;9.216;2023-06-22T04:39:03;95403.91;;;20.06;100.00
4590;BME280;2307;48.448;9.216;2023-06-22T04:41:30;95398.66;;;20.15;100.00
4590;BME280;2307;48.448;9.216;2023-06-22T04:44:07;95392.78;;;20.13;100.00
4590;BME280;2307;48.448;9.216;2023-06-22T04:46:33;95389.22;;;20.17;100.00
4590;BME280;2307;48.448;9.216;2023-06-22T04:49:03;95392.41;;;20.20;100.00
4590;BME280;2307;48.448;9.216;2023-06-22T04:51:31;95380.09;;;20.19;100.00
4590;BME280;2307;48.448;9.216;2023-06-22T04:53:57;95376.06;;;20.02;100.00
4590;BME280;2307;48.448;9.216;2023-06-22T04:56:27;95372.91;;;20.00;100.00
4590;BME280;2307;48.448;9.216;2023-06-22T04:58:54;95371.69;;;19.93;100.00
4590;BME280;2307;48.448;9.216;2023-06-22T05:01:22;95368.28;;;19.87;100.00
4590;BME280;2307;48.448;9.216;2023-06-22T05:03:48;95373.56;;;19.92;100.00
4590;BME280;2307;48.448;9.216;2023-06-22T05:06:15;95376.28;;;20.06;100.00
4590;BME280;2307;48.448;9.216;2023-06-22T05:08:41;95365.97;;;20.13;100.00
4590;BME280;2307;48.448;9.216;2023-06-22T05:11:08;95380.16;;;20.32;100.00
4590;BME280;2307;48.448;9.216;2023-06-22T05:13:35;95380.34;;;20.36;100.00
4590;BME280;2307;48.448;9.216;2023-06-22T05:16:02;95373.31;;;20.21;100.00
4590;BME280;2307;48.448;9.216;2023-06-22T05:18:28;95371.66;;;20.25;100.00
4590;BME280;2307;48.448;9.216;2023-06-22T05:20:55;95369.50;;;20.27;100.00
4590;BME280;2307;48.448;9.216;2023-06-22T05:23:21;95371.72;;;20.39;100.00
4590;BME280;2307;48.448;9.216;2023-06-22T05:25:48;95377.66;;;20.49;100.00
4590;BME280;2307;48.448;9.216;2023-06-22T05:28:14;95370.41;;;20.50;100.00
4590;BME280;2307;48.448;9.216;2023-06-22T05:30:42;95361.69;;;20.58;100.00
4590;BME280;2307;48.448;9.216;2023-06-22T05:33:08;95372.78;;;20.65;100.00
4590;BME280;2307;48.448;9.216;2023-06-22T05:35:34;95371.50;;;20.76;100.00
4590;BME280;2307;48.448;9.216;2023-06-22T05:38:01;95366.47;;;20.61;100.00
4590;BME280;2307;48.448;9.216;2023-06-22T05:40:27;95366.34;;;20.66;100.00
4590;BME280;2307;48.448;9.216;2023-06-22T05:42:53;95376.00;;;20.67;100.00
4590;BME280;2307;48.448;9.216;2023-06-22T05:45:20;95378.47;;;20.77;100.00
4590;BME280;2307;48.448;9.216;2023-06-22T05:47:48;95385.50;;;20.87;100.00
4590;BME280;2307;48.448;9.216;2023-06-22T05:50:14;95381.94;;;20.78;100.00
4590;BME280;2307;48.448;9.216;2023-06-22T05:52:40;95395.25;;;20.96;100.00
4590;BME280;2307;48.448;9.216;2023-06-22T05:55:07;95400.63;;;20.96;100.00
4590;BME280;2307;48.448;9.216;2023-06-22T05:57:33;95391.69;;;20.87;100.00
4590;BME280;2307;48.448;9.216;2023-06-22T06:00:00;95389.13;;;20.96;100.00
4590;BME280;2307;48.448;9.216;2023-06-22T06:02:27;95391.28;;;21.07;100.00
4590;BME280;2307;48.448;9.216;2023-06-22T06:04:55;95393.47;;;21.19;100.00
4590;BME280;2307;48.448;9.216;2023-06-22T06:07:22;95388.50;;;21.26;100.00
4590;BME280;2307;48.448;9.216;2023-06-22T06:09:48;95386.88;;;21.25;100.00
4590;BME280;2307;48.448;9.216;2023-06-22T06:12:14;95392.06;;;21.22;100.00
4590;BME280;2307;48.448;9.216;2023-06-22T06:14:41;95393.25;;;21.29;100.00
4590;BME280;2307;48.448;9.216;2023-06-22T06:17:07;95386.13;;;21.25;100.00
4590;BME280;2307;48.448;9.216;2023-06-22T06:19:33;95385.88;;;21.35;100.00
4590;BME280;2307;48.448;9.216;2023-06-22T06:22:01;95400.31;;;21.39;100.00
4590;BME280;2307;48.448;9.216;2023-06-22T06:24:28;95379.16;;;21.24;100.00
4590;BME280;2307;48.448;9.216;2023-06-22T06:26:54;95382.59;;;21.38;100.00
4590;BME280;2307;48.448;9.216;2023-06-22T06:29:21;95383.69;;;21.37;100.00
4590;BME280;2307;48.448;9.216;2023-06-22T06:31:48;95387.94;;;21.51;100.00
4590;BME280;2307;48.448;9.216;2023-06-22T06:34:15;95372.13;;;21.50;100.00
4590;BME280;2307;48.448;9.216;2023-06-22T06:36:41;95369.97;;;21.60;100.00
4590;BME280;2307;48.448;9.216;2023-06-22T06:39:09;95367.84;;;21.71;100.00
4590;BME280;2307;48.448;9.216;2023-06-22T06:41:35;95370.81;;;21.69;100.00
4590;BME280;2307;48.448;9.216;2023-06-22T06:44:01;95378.66;;;21.80;100.00
4590;BME280;2307;48.448;9.216;2023-06-22T06:46:28;95375.75;;;21.90;100.00
4590;BME280;2307;48.448;9.216;2023-06-22T06:48:54;95373.06;;;22.12;100.00
4590;BME280;2307;48.448;9.216;2023-06-22T06:51:21;95375.16;;;22.23;100.00
4590;BME280;2307;48.448;9.216;2023-06-22T06:53:48;95386.28;;;22.31;100.00
4590;BME280;2307;48.448;9.216;2023-06-22T06:56:15;95383.56;;;22.53;100.00
4590;BME280;2307;48.448;9.216;2023-06-22T06:58:42;95386.06;;;22.80;100.00
4590;BME280;2307;48.448;9.216;2023-06-22T07:01:10;95393.03;;;22.72;100.00
4590;BME280;2307;48.448;9.216;2023-06-22T07:03:36;95401.13;;;22.81;100.00
4590;BME280;2307;48.448;9.216;2023-06-22T07:06:03;95399.69;;;22.75;100.00
4590;BME280;2307;48.448;9.216;2023-06-22T07:08:29;95389.38;;;22.77;100.00
4590;BME280;2307;48.448;9.216;2023-06-22T07:10:55;95387.66;;;22.90;100.00
4590;BME280;2307;48.448;9.216;2023-06-22T07:13:23;95371.06;;;22.96;100.00
4590;BME280;2307;48.448;9.216;2023-06-22T07:15:50;95385.38;;;23.05;100.00
4590;BME280;2307;48.448;9.216;2023-06-22T07:18:16;95382.97;;;23.12;100.00
4590;BME280;2307;48.448;9.216;2023-06-22T07:20:43;95376.97;;;23.15;100.00
4590;BME280;2307;48.448;9.216;2023-06-22T07:23:09;95383.78;;;23.21;100.00
4590;BME280;2307;48.448;9.216;2023-06-22T07:28:20;95368.81;;;23.46;100.00
4590;BME280;2307;48.448;9.216;2023-06-22T07:30:48;95361.34;;;23.52;100.00
4590;BME280;2307;48.448;9.216;2023-06-22T07:33:16;95353.41;;;23.64;100.00
4590;BME280;2307;48.448;9.216;2023-06-22T07:35:42;95342.16;;;23.53;100.00
4590;BME280;2307;48.448;9.216;2023-06-22T07:38:09;95337.88;;;23.61;100.00
4590;BME280;2307;48.448;9.216;2023-06-22T07:40:35;95339.94;;;23.81;100.00
4590;BME280;2307;48.448;9.216;2023-06-22T07:43:02;95338.03;;;23.73;100.00
4590;BME280;2307;48.448;9.216;2023-06-22T07:45:29;95348.03;;;23.81;100.00
4590;BME280;2307;48.448;9.216;2023-06-22T07:47:59;95345.31;;;23.72;100.00
4590;BME280;2307;48.448;9.216;2023-06-22T07:50:26;95333.41;;;23.82;100.00
4590;BME280;2307;48.448;9.216;2023-06-22T07:52:52;95335.47;;;23.85;100.00
4590;BME280;2307;48.448;9.216;2023-06-22T07:55:19;95326.53;;;24.02;100.00
4590;BME280;2307;48.448;9.216;2023-06-22T07:57:46;95339.22;;;24.27;100.00
4590;BME280;2307;48.448;9.216;2023-06-22T08:00:13;95342.66;;;24.45;100.00
4590;BME280;2307;48.448;9.216;2023-06-22T08:02:42;95333.25;;;24.51;100.00
4590;BME280;2307;48.448;9.216;2023-06-22T08:05:10;95324.06;;;24.43;100.00
4590;BME280;2307;48.448;9.216;2023-06-22T08:07:37;95327.38;;;24.49;100.00
4590;BME280;2307;48.448;9.216;2023-06-22T08:10:04;95341.09;;;24.73;100.00
4590;BME280;2307;48.448;9.216;2023-06-22T08:12:30;95339.19;;;24.82;100.00
4590;BME280;2307;48.448;9.216;2023-06-22T08:14:57;95344.72;;;24.77;100.00
4590;BME280;2307;48.448;9.216;2023-06-22T08:17:23;95352.84;;;24.77;100.00
4590;BME280;2307;48.448;9.216;2023-06-22T08:19:49;95370.75;;;24.90;100.00
4590;BME280;2307;48.448;9.216;2023-06-22T08:22:17;95382.22;;;25.16;100.00
4590;BME280;2307;48.448;9.216;2023-06-22T08:24:43;95391.72;;;25.22;100.00
4590;BME280;2307;48.448;9.216;2023-06-22T08:27:10;95392.94;;;25.33;100.00
4590;BME280;2307;48.448;9.216;2023-06-22T08:29:38;95402.31;;;25.36;100.00
4590;BME280;2307;48.448;9.216;2023-06-22T08:32:04;95422.28;;;25.44;100.00
4590;BME280;2307;48.448;9.216;2023-06-22T08:34:31;95434.34;;;25.55;100.00
4590;BME280;2307;48.448;9.216;2023-06-22T08:36:58;95454.00;;;25.34;100.00
4590;BME280;2307;48.448;9.216;2023-06-22T08:39:26;95449.31;;;25.23;100.00
4590;BME280;2307;48.448;9.216;2023-06-22T08:41:53;95451.88;;;25.19;100.00
4590;BME280;2307;48.448;9.216;2023-06-22T08:44:19;95465.28;;;25.07;100.00
4590;BME280;2307;48.448;9.216;2023-06-22T08:46:45;95451.66;;;24.95;100.00
4590;BME280;2307;48.448;9.216;2023-06-22T08:49:12;95444.84;;;24.80;100.00
4590;BME280;2307;48.448;9.216;2023-06-22T08:51:38;95432.25;;;24.93;100.00
4590;BME280;2307;48.448;9.216;2023-06-22T08:54:04;95424.00;;;24.98;100.00
4590;BME280;2307;48.448;9.216;2023-06-22T08:56:32;95435.09;;;24.97;100.00
4590;BME280;2307;48.448;9.216;2023-06-22T08:58:59;95422.69;;;25.04;100.00
4590;BME280;2307;48.448;9.216;2023-06-22T09:01:25;95417.63;;;24.94;100.00
4590;BME280;2307;48.448;9.216;2023-06-22T09:03:51;95418.16;;;24.88;100.00
4590;BME280;2307;48.448;9.216;2023-06-22T09:06:22;95409.84;;;24.93;100.00
4590;BME280;2307;48.448;9.216;2023-06-22T09:08:49;95413.28;;;25.10;100.00
4590;BME280;2307;48.448;9.216;2023-06-22T09:11:15;95410.00;;;25.25;100.00
4590;BME280;2307;48.448;9.216;2023-06-22T09:13:43;95409.63;;;25.35;100.00
4590;BME280;2307;48.448;9.216;2023-06-22T09:16:09;95403.66;;;25.51;100.00
4590;BME280;2307;48.448;9.216;2023-06-22T09:18:36;95406.38;;;25.51;100.00
4590;BME280;2307;48.448;9.216;2023-06-22T09:21:03;95409.66;;;25.56;100.00
4590;BME280;2307;48.448;9.216;2023-06-22T09:23:29;95395.44;;;25.68;100.00
4590;BME280;2307;48.448;9.216;2023-06-22T09:25:56;95389.16;;;25.76;100.00
4590;BME280;2307;48.448;9.216;2023-06-22T09:28:22;95383.09;;;25.79;100.00
4590;BME280;2307;48.448;9.216;2023-06-22T09:30:50;95382.28;;;25.78;100.00
4590;BME280;2307;48.448;9.216;2023-06-22T09:33:24;95384.84;;;25.96;100.00
4590;BME280;2307;48.448;9.216;2023-06-22T09:35:50;95383.75;;;25.97;100.00
4590;BME280;2307;48.448;9.216;2023-06-22T09:38:16;95380.72;;;26.10;100.00
4590;BME280;2307;48.448;9.216;2023-06-22T09:40:43;95389.63;;;26.19;100.00
4590;BME280;2307;48.448;9.216;2023-06-22T09:43:09;95379.00;;;26.26;100.00
4590;BME280;2307;48.448;9.216;2023-06-22T09:45:36;95371.81;;;26.30;100.00
4590;BME280;2307;48.448;9.216;2023-06-22T09:48:04;95364.63;;;26.47;100.00
4590;BME280;2307;48.448;9.216;2023-06-22T09:50:31;95366.56;;;26.58;100.00
4590;BME280;2307;48.448;9.216;2023-06-22T09:52:57;95358.53;;;26.74;100.00
4590;BME280;2307;48.448;9.216;2023-06-22T09:55:24;95357.56;;;26.90;100.00
4590;BME280;2307;48.448;9.216;2023-06-22T09:57:50;95352.38;;;26.98;100.00
4590;BME280;2307;48.448;9.216;2023-06-22T10:00:17;95345.84;;;26.99;100.00
4590;BME280;2307;48.448;9.216;2023-06-22T10:02:44;95346.63;;;27.11;100.00
4590;BME280;2307;48.448;9.216;2023-06-22T10:05:12;95342.53;;;27.29;100.00
4590;BME280;2307;48.448;9.216;2023-06-22T10:07:39;95343.75;;;27.44;100.00
4590;BME280;2307;48.448;9.216;2023-06-22T10:10:08;95344.31;;;27.37;100.00
4590;BME280;2307;48.448;9.216;2023-06-22T10:12:34;95346.31;;;27.53;100.00
4590;BME280;2307;48.448;9.216;2023-06-22T10:15:01;95333.34;;;27.58;100.00
4590;BME280;2307;48.448;9.216;2023-06-22T10:17:27;95332.84;;;27.68;100.00
4590;BME280;2307;48.448;9.216;2023-06-22T10:22:24;95323.81;;;27.92;100.00
4590;BME280;2307;48.448;9.216;2023-06-22T10:24:51;95338.25;;;28.08;100.00
4590;BME280;2307;48.448;9.216;2023-06-22T10:27:17;95330.84;;;28.36;100.00
4590;BME280;2307;48.448;9.216;2023-06-22T10:29:43;95328.31;;;28.59;100.00
4590;BME280;2307;48.448;9.216;2023-06-22T10:32:10;95326.34;;;28.72;100.00
4590;BME280;2307;48.448;9.216;2023-06-22T10:34:36;95322.00;;;29.02;100.00
4590;BME280;2307;48.448;9.216;2023-06-22T10:37:03;95315.00;;;29.01;100.00
4590;BME280;2307;48.448;9.216;2023-06-22T10:39:30;95314.59;;;29.18;100.00
4590;BME280;2307;48.448;9.216;2023-06-22T10:41:57;95320.66;;;29.27;100.00
4590;BME280;2307;48.448;9.216;2023-06-22T10:44:23;95315.16;;;29.43;100.00
4590;BME280;2307;48.448;9.216;2023-06-22T10:46:50;95314.25;;;29.55;99.12
4590;BME280;2307;48.448;9.216;2023-06-22T10:49:16;95314.34;;;29.77;100.00
4590;BME280;2307;48.448;9.216;2023-06-22T10:51:42;95311.75;;;29.84;97.56
4590;BME280;2307;48.448;9.216;2023-06-22T10:54:09;95322.56;;;29.81;98.18
4590;BME280;2307;48.448;9.216;2023-06-22T10:56:37;95323.88;;;30.06;95.42
4590;BME280;2307;48.448;9.216;2023-06-22T10:59:03;95319.25;;;30.10;92.00
4590;BME280;2307;48.448;9.216;2023-06-22T11:01:29;95323.66;;;30.15;90.44
4590;BME280;2307;48.448;9.216;2023-06-22T11:03:58;95328.06;;;30.23;98.67
4590;BME280;2307;48.448;9.216;2023-06-22T11:06:41;95328.69;;;30.35;94.48
4590;BME280;2307;48.448;9.216;2023-06-22T11:09:08;95326.66;;;30.51;91.34
4590;BME280;2307;48.448;9.216;2023-06-22T11:11:34;95330.19;;;30.75;87.52
4590;BME280;2307;48.448;9.216;2023-06-22T11:14:02;95333.28;;;30.96;86.02
4590;BME280;2307;48.448;9.216;2023-06-22T11:16:28;95327.13;;;31.02;83.94
4590;BME280;2307;48.448;9.216;2023-06-22T11:18:55;95322.47;;;31.03;86.79
4590;BME280;2307;48.448;9.216;2023-06-22T11:21:21;95318.28;;;31.09;85.59
4590;BME280;2307;48.448;9.216;2023-06-22T11:23:47;95307.41;;;31.13;83.83
4590;BME280;2307;48.448;9.216;2023-06-22T11:26:15;95291.00;;;31.09;84.92
4590;BME280;2307;48.448;9.216;2023-06-22T11:28:41;95295.66;;;31.08;86.93
4590;BME280;2307;48.448;9.216;2023-06-22T11:31:09;95290.06;;;30.98;86.70
4590;BME280;2307;48.448;9.216;2023-06-22T11:33:36;95297.66;;;30.89;88.12
4590;BME280;2307;48.448;9.216;2023-06-22T11:36:02;95301.13;;;30.86;83.51
4590;BME280;2307;48.448;9.216;2023-06-22T11:38:29;95309.63;;;30.81;84.75
4590;BME280;2307;48.448;9.216;2023-06-22T11:40:55;95324.31;;;30.73;89.07
4590;BME280;2307;48.448;9.216;2023-06-22T11:43:22;95328.91;;;30.69;88.53
4590;BME280;2307;48.448;9.216;2023-06-22T11:45:48;95306.84;;;30.77;91.60
4590;BME280;2307;48.448;9.216;2023-06-22T11:48:17;95277.22;;;30.76;83.98
4590;BME280;2307;48.448;9.216;2023-06-22T11:50:43;95271.34;;;30.74;86.01
4590;BME280;2307;48.448;9.216;2023-06-22T11:53:09;95262.19;;;30.89;87.80
4590;BME280;2307;48.448;9.216;2023-06-22T11:55:36;95274.31;;;31.14;88.31
4590;BME280;2307;48.448;9.216;2023-06-22T11:58:02;95273.97;;;31.45;83.32
4590;BME280;2307;48.448;9.216;2023-06-22T12:00:30;95284.94;;;31.49;80.09
4590;BME280;2307;48.448;9.216;2023-06-22T12:02:57;95289.59;;;31.48;76.30
4590;BME280;2307;48.448;9.216;2023-06-22T12:05:24;95296.34;;;31.54;74.38
4590;BME280;2307;48.448;9.216;2023-06-22T12:07:52;95295.38;;;31.43;73.14
4590;BME280;2307;48.448;9.216;2023-06-22T12:10:19;95305.41;;;31.36;75.03
4590;BME280;2307;48.448;9.216;2023-06-22T12:12:45;95304.16;;;31.30;78.92
4590;BME280;2307;48.448;9.216;2023-06-22T12:15:11;95302.91;;;30.97;81.76
4590;BME280;2307;48.448;9.216;2023-06-22T12:17:46;95299.38;;;30.97;86.81
4590;BME280;2307;48.448;9.216;2023-06-22T12:20:13;95306.16;;;30.84;84.23
4590;BME280;2307;48.448;9.216;2023-06-22T12:22:41;95313.50;;;30.80;84.60
4590;BME280;2307;48.448;9.216;2023-06-22T12:25:08;95326.38;;;30.57;87.17
4590;BME280;2307;48.448;9.216;2023-06-22T12:27:34;95332.38;;;30.43;87.19
4590;BME280;2307;48.448;9.216;2023-06-22T12:30:01;95343.81;;;30.33;89.54
4590;BME280;2307;48.448;9.216;2023-06-22T12:32:27;95349.06;;;30.22;93.54
4590;BME280;2307;48.448;9.216;2023-06-22T12:34:54;95348.78;;;30.27;90.82
4590;BME280;2307;48.448;9.216;2023-06-22T12:37:21;95344.97;;;30.32;88.10
4590;BME280;2307;48.448;9.216;2023-06-22T12:39:48;95347.22;;;30.26;90.87
4590;BME280;2307;48.448;9.216;2023-06-22T12:42:15;95351.53;;;30.08;91.52
4590;BME280;2307;48.448;9.216;2023-06-22T12:44:41;95343.38;;;30.08;94.70
4590;BME280;2307;48.448;9.216;2023-06-22T12:47:08;95340.22;;;30.06;94.11
4590;BME280;2307;48.448;9.216;2023-06-22T12:49:35;95338.88;;;29.96;96.98
4590;BME280;2307;48.448;9.216;2023-06-22T12:52:08;95334.63;;;29.99;98.01
4590;BME280;2307;48.448;9.216;2023-06-22T12:54:35;95327.22;;;29.80;96.32
4590;BME280;2307;48.448;9.216;2023-06-22T12:57:07;95323.72;;;29.80;96.74
4590;BME280;2307;48.448;9.216;2023-06-22T12:59:33;95322.09;;;29.94;99.11
4590;BME280;2307;48.448;9.216;2023-06-22T13:02:00;95326.59;;;30.06;96.30
4590;BME280;2307;48.448;9.216;2023-06-22T13:04:26;95336.97;;;30.20;93.99
4590;BME280;2307;48.448;9.216;2023-06-22T13:06:52;95324.78;;;30.14;93.80
4590;BME280;2307;48.448;9.216;2023-06-22T13:09:19;95320.81;;;30.30;96.17
4590;BME280;2307;48.448;9.216;2023-06-22T13:11:45;95317.22;;;30.45;97.23
4590;BME280;2307;48.448;9.216;2023-06-22T13:14:15;95316.47;;;30.71;92.29
4590;BME280;2307;48.448;9.216;2023-06-22T13:16:42;95330.00;;;30.87;91.26
4590;BME280;2307;48.448;9.216;2023-06-22T13:19:08;95325.44;;;30.94;92.16